createdAt,value
2018-03-26T00:00:31.578Z,7.60
2018-03-26T00:03:06.958Z,7.60
2018-03-26T00:05:43.904Z,7.50
2018-03-26T00:08:17.824Z,7.50
2018-03-26T00:10:52.772Z,7.50
2018-03-26T00:13:29.393Z,7.60
2018-03-26T00:16:05.604Z,7.50
2018-03-26T00:18:42.660Z,7.50
2018-03-26T00:21:17.582Z,7.60
2018-03-26T00:23:51.292Z,7.60
2018-03-26T00:26:28.435Z,7.50
2018-03-26T00:29:05.376Z,7.50
2018-03-26T00:31:40.312Z,7.50
2018-03-26T00:34:14.732Z,7.40
2018-03-26T00:36:50.215Z,7.40
2018-03-26T00:39:24.776Z,7.40
2018-03-26T00:41:58.312Z,7.40
2018-03-26T00:44:31.884Z,7.30
2018-03-26T00:47:07.868Z,7.30
2018-03-26T00:49:42.090Z,7.30
2018-03-26T00:52:17.280Z,7.30
2018-03-26T00:54:51.825Z,7.30
2018-03-26T00:57:28.325Z,7.30
2018-03-26T01:00:02.850Z,7.30
2018-03-26T01:02:38.880Z,7.20
2018-03-26T01:05:17.208Z,7.20
2018-03-26T01:07:53.411Z,7.10
2018-03-26T01:10:29.001Z,7.10
2018-03-26T01:13:06.935Z,7.10
2018-03-26T01:15:44.696Z,7.10
2018-03-26T01:18:20.211Z,7.10
2018-03-26T01:20:55.002Z,7.10
2018-03-26T01:23:28.767Z,7.00
2018-03-26T01:26:02.480Z,7.00
2018-03-26T01:28:37.282Z,7.00
2018-03-26T01:31:10.950Z,7.00
2018-03-26T01:33:45.680Z,7.00
2018-03-26T01:36:19.484Z,7.00
2018-03-26T01:38:53.689Z,7.00
2018-03-26T01:41:29.003Z,6.90
2018-03-26T01:44:04.599Z,6.90
2018-03-26T01:46:44.714Z,6.90
2018-03-26T01:49:18.312Z,6.80
2018-03-26T01:51:53.837Z,6.90
2018-03-26T01:54:28.758Z,6.90
2018-03-26T01:57:02.383Z,6.90
2018-03-26T01:59:37.713Z,6.90
2018-03-26T02:02:11.563Z,6.80
2018-03-26T02:04:46.239Z,6.80
2018-03-26T02:07:19.811Z,6.80
2018-03-26T02:09:54.653Z,6.70
2018-03-26T02:12:28.272Z,6.60
2018-03-26T02:15:03.707Z,6.70
2018-03-26T02:17:37.457Z,6.70
2018-03-26T02:20:11.233Z,6.70
2018-03-26T02:22:44.957Z,6.70
2018-03-26T02:25:19.531Z,6.60
2018-03-26T02:27:54.285Z,6.60
2018-03-26T02:30:27.980Z,6.60
2018-03-26T02:33:02.838Z,6.60
2018-03-26T02:35:37.479Z,6.60
2018-03-26T02:38:11.203Z,6.50
2018-03-26T02:40:45.847Z,6.50
2018-03-26T02:43:19.549Z,6.50
2018-03-26T02:45:53.338Z,6.60
2018-03-26T02:48:27.141Z,6.50
2018-03-26T02:51:00.997Z,6.50
2018-03-26T02:53:35.524Z,6.40
2018-03-26T02:56:09.343Z,6.40
2018-03-26T02:58:43.242Z,6.40
2018-03-26T03:01:17.805Z,6.40
2018-03-26T03:03:51.561Z,6.30
2018-03-26T03:06:25.301Z,6.30
2018-03-26T03:08:59.124Z,6.30
2018-03-26T03:11:34.034Z,6.30
2018-03-26T03:14:07.868Z,6.30
2018-03-26T03:16:42.138Z,6.30
2018-03-26T03:19:15.758Z,6.30
2018-03-26T03:21:50.320Z,6.30
2018-03-26T03:24:24.033Z,6.30
2018-03-26T03:26:57.845Z,6.30
2018-03-26T03:29:31.597Z,6.30
2018-03-26T03:32:06.152Z,6.30
2018-03-26T03:34:41.156Z,6.30
2018-03-26T03:37:14.723Z,6.30
2018-03-26T03:39:48.849Z,6.30
2018-03-26T03:42:22.597Z,6.30
2018-03-26T03:44:56.314Z,6.20
2018-03-26T03:47:30.041Z,6.20
2018-03-26T03:50:04.737Z,6.20
2018-03-26T03:52:39.257Z,6.20
2018-03-26T03:55:12.834Z,6.20
2018-03-26T03:57:46.544Z,6.20
2018-03-26T04:00:21.566Z,6.20
2018-03-26T04:02:56.031Z,6.20
2018-03-26T04:05:31.339Z,6.20
2018-03-26T04:08:04.904Z,6.10
2018-03-26T04:10:40.322Z,6.10
2018-03-26T04:13:14.094Z,6.10
2018-03-26T04:15:47.829Z,6.00
2018-03-26T04:18:21.721Z,6.00
2018-03-26T04:20:56.180Z,6.10
2018-03-26T04:23:30.023Z,6.00
2018-03-26T04:26:03.701Z,6.00
2018-03-26T04:28:37.792Z,6.00
2018-03-26T04:31:11.502Z,6.00
2018-03-26T04:33:45.092Z,6.00
2018-03-26T04:36:19.252Z,6.00
2018-03-26T04:38:53.704Z,6.00
2018-03-26T04:41:27.490Z,6.00
2018-03-26T04:44:01.316Z,6.00
2018-03-26T04:46:35.371Z,5.90
2018-03-26T04:49:09.168Z,5.90
2018-03-26T04:51:42.836Z,5.90
2018-03-26T04:54:17.732Z,5.90
2018-03-26T04:56:51.842Z,5.80
2018-03-26T04:59:26.035Z,5.80
2018-03-26T05:01:59.593Z,5.80
2018-03-26T05:04:33.160Z,5.80
2018-03-26T05:07:07.818Z,5.70
2018-03-26T05:09:41.979Z,5.70
2018-03-26T05:12:15.728Z,5.60
2018-03-26T05:14:50.967Z,5.60
2018-03-26T05:17:25.751Z,5.60
2018-03-26T05:19:59.486Z,5.60
2018-03-26T05:22:33.251Z,5.60
2018-03-26T05:25:06.991Z,5.60
2018-03-26T05:27:41.964Z,5.60
2018-03-26T05:30:16.620Z,5.60
2018-03-26T05:32:51.721Z,5.60
2018-03-26T05:35:25.496Z,5.70
2018-03-26T05:38:00.767Z,5.60
2018-03-26T05:40:35.340Z,5.60
2018-03-26T05:43:09.679Z,5.60
2018-03-26T05:45:44.263Z,5.60
2018-03-26T05:48:18.011Z,5.60
2018-03-26T05:50:51.741Z,5.60
2018-03-26T05:53:26.043Z,5.60
2018-03-26T05:55:59.669Z,5.60
2018-03-26T05:58:33.445Z,5.60
2018-03-26T06:01:07.823Z,5.60
2018-03-26T06:03:41.534Z,5.60
2018-03-26T06:06:16.136Z,5.70
2018-03-26T06:08:49.957Z,5.70
2018-03-26T06:11:23.661Z,5.70
2018-03-26T06:13:57.509Z,5.70
2018-03-26T06:16:31.274Z,5.80
2018-03-26T06:19:05.243Z,5.80
2018-03-26T06:21:38.986Z,5.80
2018-03-26T06:24:13.648Z,5.80
2018-03-26T06:26:48.688Z,5.80
2018-03-26T06:29:22.975Z,5.80
2018-03-26T06:31:57.431Z,5.70
2018-03-26T06:34:32.257Z,5.70
2018-03-26T06:40:05.950Z,5.70
2018-03-26T06:42:39.813Z,5.80
2018-03-26T06:45:14.195Z,6.10
2018-03-26T06:47:49.497Z,6.00
2018-03-26T06:50:23.210Z,6.20
2018-03-26T06:52:57.869Z,6.20
2018-03-26T06:55:33.739Z,6.30
2018-03-26T06:58:09.066Z,6.30
2018-03-26T07:00:45.531Z,6.30
2018-03-26T07:03:20.001Z,6.30
2018-03-26T07:05:54.853Z,6.30
2018-03-26T07:08:30.233Z,6.30
2018-03-26T07:11:07.943Z,6.30
2018-03-26T07:13:43.844Z,6.30
2018-03-26T07:16:18.258Z,6.20
2018-03-26T07:18:52.011Z,6.20
2018-03-26T07:21:25.742Z,6.20
2018-03-26T07:23:59.514Z,6.40
2018-03-26T07:26:33.193Z,6.40
2018-03-26T07:29:07.397Z,6.50
2018-03-26T07:31:41.107Z,6.60
2018-03-26T07:34:14.851Z,6.80
2018-03-26T07:36:48.614Z,6.80
2018-03-26T07:39:22.324Z,6.80
2018-03-26T07:41:56.688Z,6.60
2018-03-26T07:44:30.512Z,6.50
2018-03-26T07:47:05.363Z,6.30
2018-03-26T07:49:39.055Z,6.20
2018-03-26T07:52:14.871Z,6.30
2018-03-26T07:54:49.435Z,6.30
2018-03-26T07:57:24.273Z,6.40
2018-03-26T07:59:58.056Z,6.50
2018-03-26T08:02:31.848Z,6.70
2018-03-26T08:05:05.823Z,7.00
2018-03-26T08:07:40.030Z,7.20
2018-03-26T08:10:13.922Z,7.40
2018-03-26T08:12:49.138Z,7.60
2018-03-26T08:15:23.741Z,7.60
2018-03-26T08:18:00.260Z,7.50
2018-03-26T08:20:35.208Z,7.50
2018-03-26T08:23:11.233Z,7.40
2018-03-26T08:25:45.854Z,7.10
2018-03-26T08:28:20.588Z,6.80
2018-03-26T08:30:55.010Z,6.70
2018-03-26T08:33:29.661Z,6.80
2018-03-26T08:36:04.106Z,6.80
2018-03-26T08:38:37.869Z,7.00
2018-03-26T08:41:13.199Z,7.10
2018-03-26T08:43:50.801Z,7.10
2018-03-26T08:46:25.624Z,7.20
2018-03-26T08:49:01.108Z,7.50
2018-03-26T08:51:35.108Z,7.50
2018-03-26T08:54:08.743Z,7.40
2018-03-26T08:56:42.559Z,7.40
2018-03-26T08:59:17.165Z,7.60
2018-03-26T09:01:50.789Z,7.80
2018-03-26T09:04:24.553Z,7.60
2018-03-26T09:07:01.024Z,7.40
2018-03-26T09:09:35.589Z,7.40
2018-03-26T09:12:10.337Z,7.10
2018-03-26T09:14:44.878Z,7.10
2018-03-26T09:17:18.646Z,7.00
2018-03-26T09:19:53.617Z,7.00
2018-03-26T09:22:29.010Z,7.10
2018-03-26T09:25:03.768Z,7.20
2018-03-26T09:27:37.692Z,7.30
2018-03-26T09:30:11.353Z,7.30
2018-03-26T09:32:45.140Z,7.40
2018-03-26T09:35:18.957Z,7.30
2018-03-26T09:40:30.909Z,7.40
2018-03-26T09:43:04.580Z,7.40
2018-03-26T09:48:18.924Z,7.50
2018-03-26T09:50:53.536Z,7.40
2018-03-26T09:53:28.153Z,7.20
2018-03-26T09:56:01.857Z,7.20
2018-03-26T09:58:35.792Z,7.50
2018-03-26T10:01:16.568Z,7.70
2018-03-26T10:03:52.135Z,7.80
2018-03-26T10:06:27.400Z,8.00
2018-03-26T10:09:00.956Z,8.00
2018-03-26T10:11:36.675Z,8.10
2018-03-26T10:14:13.445Z,8.10
2018-03-26T10:16:48.792Z,8.10
2018-03-26T10:19:23.558Z,7.80
2018-03-26T10:21:58.737Z,7.90
2018-03-26T10:24:33.949Z,7.60
2018-03-26T10:27:07.566Z,7.60
2018-03-26T10:29:41.860Z,7.30
2018-03-26T10:32:16.381Z,7.50
2018-03-26T10:34:50.942Z,7.90
2018-03-26T10:37:26.374Z,7.90
2018-03-26T10:40:01.008Z,7.90
2018-03-26T10:42:39.639Z,7.60
2018-03-26T10:45:14.976Z,7.60
2018-03-26T10:47:48.944Z,7.70
2018-03-26T10:50:22.959Z,7.70
2018-03-26T10:52:57.606Z,7.70
2018-03-26T10:55:33.977Z,7.70
2018-03-26T10:58:08.330Z,7.90
2018-03-26T11:00:43.609Z,8.00
2018-03-26T11:03:17.879Z,7.90
2018-03-26T11:05:53.399Z,7.70
2018-03-26T11:08:27.961Z,7.70
2018-03-26T11:11:02.029Z,7.50
2018-03-26T11:13:36.898Z,7.70
2018-03-26T11:16:10.704Z,7.70
2018-03-26T11:18:44.474Z,7.90
2018-03-26T11:21:18.215Z,7.50
2018-03-26T11:23:52.874Z,7.40
2018-03-26T11:26:27.077Z,7.50
2018-03-26T11:29:01.865Z,7.70
2018-03-26T11:31:36.467Z,8.00
2018-03-26T11:34:10.245Z,7.90
2018-03-26T11:36:44.553Z,7.90
2018-03-26T11:39:19.248Z,8.10
2018-03-26T11:41:53.872Z,8.10
2018-03-26T11:44:28.351Z,8.20
2018-03-26T11:47:02.363Z,8.10
2018-03-26T11:49:36.072Z,7.80
2018-03-26T11:52:10.065Z,8.10
2018-03-26T11:54:43.898Z,8.20
2018-03-26T11:57:17.976Z,8.10
2018-03-26T11:59:54.097Z,8.40
2018-03-26T12:02:28.498Z,8.40
2018-03-26T12:05:07.039Z,8.30
2018-03-26T12:07:42.213Z,8.30
2018-03-26T12:10:16.937Z,8.20
2018-03-26T12:12:51.752Z,8.40
2018-03-26T12:15:26.135Z,8.30
2018-03-26T12:18:02.337Z,8.20
2018-03-26T12:20:48.255Z,7.90
2018-03-26T12:23:33.687Z,7.90
2018-03-26T12:26:12.493Z,7.90
2018-03-26T12:28:58.258Z,8.10
2018-03-26T12:31:32.338Z,8.30
2018-03-26T12:34:18.888Z,8.00
2018-03-26T12:36:54.352Z,7.80
2018-03-26T12:39:29.339Z,7.60
2018-03-26T12:42:05.380Z,7.40
2018-03-26T12:44:50.961Z,7.20
2018-03-26T12:47:25.505Z,6.90
2018-03-26T12:50:00.125Z,6.60
2018-03-26T12:52:45.671Z,6.50
2018-03-26T12:55:19.306Z,6.50
2018-03-26T12:58:05.571Z,6.70
2018-03-26T13:00:39.644Z,6.90
2018-03-26T13:03:14.372Z,6.60
2018-03-26T13:05:48.199Z,6.90
2018-03-26T13:08:22.750Z,6.70
2018-03-26T13:10:57.646Z,6.70
2018-03-26T13:13:31.515Z,6.60
2018-03-26T13:16:06.136Z,6.60
2018-03-26T13:18:41.456Z,6.70
2018-03-26T13:21:16.088Z,6.40
2018-03-26T13:23:49.751Z,6.50
2018-03-26T13:26:23.466Z,6.40
2018-03-26T13:28:58.057Z,6.40
2018-03-26T13:31:31.885Z,6.40
2018-03-26T13:34:07.470Z,6.60
2018-03-26T13:36:43.401Z,6.80
2018-03-26T13:39:18.627Z,6.90
2018-03-26T13:41:53.876Z,7.10
2018-03-26T13:44:28.942Z,7.30
2018-03-26T13:47:02.541Z,7.40
2018-03-26T13:49:37.817Z,7.50
2018-03-26T13:52:13.705Z,7.40
2018-03-26T13:54:48.458Z,7.40
2018-03-26T13:57:23.124Z,8.30
2018-03-26T13:59:56.968Z,8.30
2018-03-26T14:02:31.805Z,7.70
2018-03-26T14:05:06.337Z,7.70
2018-03-26T14:07:43.538Z,8.10
2018-03-26T14:10:29.359Z,7.80
2018-03-26T14:13:16.228Z,7.40
2018-03-26T14:16:01.999Z,7.40
2018-03-26T14:18:36.116Z,7.90
2018-03-26T14:21:11.607Z,8.90
2018-03-26T14:23:46.652Z,9.70
2018-03-26T14:26:21.071Z,9.00
2018-03-26T14:28:55.162Z,9.00
2018-03-26T14:31:29.644Z,8.80
2018-03-26T14:34:04.170Z,8.70
2018-03-26T14:36:37.935Z,9.50
2018-03-26T14:39:11.631Z,9.80
2018-03-26T14:41:47.056Z,9.40
2018-03-26T14:44:21.789Z,8.30
2018-03-26T14:46:56.948Z,8.60
2018-03-26T14:49:31.766Z,8.60
2018-03-26T14:52:08.337Z,8.10
2018-03-26T14:54:42.012Z,8.00
2018-03-26T14:57:16.617Z,8.20
2018-03-26T14:59:51.018Z,7.90
2018-03-26T15:02:25.086Z,7.50
2018-03-26T15:04:58.749Z,7.50
2018-03-26T15:07:34.300Z,8.00
2018-03-26T15:10:13.466Z,8.30
2018-03-26T15:12:47.159Z,8.60
2018-03-26T15:15:20.895Z,8.20
2018-03-26T15:17:54.640Z,7.90
2018-03-26T15:20:28.382Z,7.40
2018-03-26T15:23:02.414Z,7.10
2018-03-26T15:25:36.797Z,6.90
2018-03-26T15:28:10.554Z,6.50
2018-03-26T15:30:45.046Z,6.30
2018-03-26T15:33:19.500Z,6.30
2018-03-26T15:35:53.151Z,6.30
2018-03-26T15:38:26.936Z,6.30
2018-03-26T15:41:00.737Z,6.30
2018-03-26T15:43:34.599Z,6.20
2018-03-26T15:46:09.512Z,5.90
2018-03-26T15:48:44.268Z,5.80
2018-03-26T15:51:17.936Z,5.60
2018-03-26T15:53:51.644Z,5.60
2018-03-26T15:56:26.289Z,5.60
2018-03-26T15:58:59.992Z,5.60
2018-03-26T16:01:34.754Z,5.70
2018-03-26T16:04:09.089Z,5.80
2018-03-26T16:06:42.915Z,5.60
2018-03-26T16:09:17.642Z,5.70
2018-03-26T16:11:51.325Z,5.60
2018-03-26T16:14:25.065Z,5.70
2018-03-26T16:16:58.647Z,5.60
2018-03-26T16:19:32.880Z,5.40
2018-03-26T16:22:07.123Z,5.50
2018-03-26T16:24:41.471Z,5.60
2018-03-26T16:27:15.874Z,5.60
2018-03-26T16:29:50.193Z,5.50
2018-03-26T16:32:24.795Z,5.50
2018-03-26T16:34:58.359Z,5.60
2018-03-26T16:37:32.887Z,5.60
2018-03-26T16:40:06.561Z,5.60
2018-03-26T16:42:44.906Z,5.40
2018-03-26T16:45:19.297Z,5.50
2018-03-26T16:47:53.791Z,5.50
2018-03-26T16:50:28.391Z,5.60
2018-03-26T16:53:02.141Z,5.60
2018-03-26T16:55:37.577Z,5.50
2018-03-26T16:58:11.194Z,5.50
2018-03-26T17:00:45.282Z,5.50
2018-03-26T17:03:20.480Z,5.50
2018-03-26T17:05:54.160Z,5.50
2018-03-26T17:08:28.917Z,5.60
2018-03-26T17:11:03.328Z,5.70
2018-03-26T17:13:37.906Z,5.50
2018-03-26T17:16:12.507Z,5.40
2018-03-26T17:18:48.324Z,5.40
2018-03-26T17:21:23.000Z,5.30
2018-03-26T17:23:57.492Z,5.30
2018-03-26T17:26:31.739Z,5.20
2018-03-26T17:29:05.902Z,5.10
2018-03-26T17:31:40.487Z,5.00
2018-03-26T17:34:14.193Z,5.00
2018-03-26T17:36:47.940Z,4.90
2018-03-26T17:39:21.718Z,4.80
2018-03-26T17:41:56.478Z,4.80
2018-03-26T17:44:32.418Z,4.60
2018-03-26T17:47:06.814Z,4.60
2018-03-26T17:49:40.497Z,4.50
2018-03-26T17:52:15.010Z,4.50
2018-03-26T17:54:49.212Z,4.40
2018-03-26T17:57:23.109Z,4.40
2018-03-26T17:59:56.924Z,4.30
2018-03-26T18:02:30.852Z,4.10
2018-03-26T18:05:08.212Z,4.10
2018-03-26T18:07:41.946Z,4.10
2018-03-26T18:10:15.609Z,4.10
2018-03-26T18:12:50.024Z,4.20
2018-03-26T18:15:26.400Z,4.10
2018-03-26T18:18:00.134Z,4.10
2018-03-26T18:20:35.758Z,4.10
2018-03-26T18:26:10.969Z,3.90
2018-03-26T18:28:44.769Z,3.90
2018-03-26T18:31:22.635Z,3.80
2018-03-26T18:33:56.398Z,3.80
2018-03-26T18:36:31.655Z,3.70
2018-03-26T18:39:06.360Z,3.70
2018-03-26T18:41:41.455Z,3.60
2018-03-26T18:44:15.175Z,3.50
2018-03-26T18:46:48.900Z,3.50
2018-03-26T18:49:23.407Z,3.40
2018-03-26T18:51:57.310Z,3.40
2018-03-26T18:54:31.034Z,3.40
2018-03-26T18:57:04.644Z,3.30
2018-03-26T18:59:38.311Z,3.30
2018-03-26T19:02:12.096Z,3.30
2018-03-26T19:04:47.333Z,3.20
2018-03-26T19:07:23.141Z,3.10
2018-03-26T19:09:56.790Z,3.00
2018-03-26T19:12:30.759Z,3.00
2018-03-26T19:15:04.491Z,3.00
2018-03-26T19:17:38.231Z,3.00
2018-03-26T19:20:12.233Z,3.00
2018-03-26T19:22:47.335Z,3.00
2018-03-26T19:25:21.937Z,3.00
2018-03-26T19:27:56.168Z,3.00
2018-03-26T19:30:30.289Z,2.90
2018-03-26T19:33:05.806Z,2.80
2018-03-26T19:35:39.660Z,2.80
2018-03-26T19:38:13.400Z,2.80
2018-03-26T19:40:48.051Z,2.60
2018-03-26T19:43:22.442Z,2.50
2018-03-26T19:45:56.192Z,2.50
2018-03-26T19:48:30.541Z,2.50
2018-03-26T19:51:04.326Z,2.50
2018-03-26T19:53:38.380Z,2.40
2018-03-26T19:56:12.016Z,2.50
2018-03-26T19:58:45.771Z,2.40
2018-03-26T20:01:19.630Z,2.50
2018-03-26T20:03:54.004Z,2.60
2018-03-26T20:06:28.638Z,2.60
2018-03-26T20:09:02.443Z,2.70
2018-03-26T20:11:36.313Z,2.60
2018-03-26T20:14:10.080Z,2.60
2018-03-26T20:16:43.859Z,2.50
2018-03-26T20:19:18.421Z,2.50
2018-03-26T20:21:52.271Z,2.40
2018-03-26T20:24:26.822Z,2.40
2018-03-26T20:27:01.576Z,2.40
2018-03-26T20:29:36.425Z,2.40
2018-03-26T20:32:10.245Z,2.40
2018-03-26T20:34:43.956Z,2.40
2018-03-26T20:37:18.091Z,2.30
2018-03-26T20:39:52.984Z,2.40
2018-03-26T20:42:27.769Z,2.40
2018-03-26T20:45:01.734Z,2.30
2018-03-26T20:47:35.585Z,2.30
2018-03-26T20:50:10.273Z,2.30
2018-03-26T20:52:44.134Z,2.20
2018-03-26T20:55:18.608Z,2.20
2018-03-26T20:57:54.029Z,2.30
2018-03-26T21:00:33.318Z,2.30
2018-03-26T21:03:08.735Z,2.30
2018-03-26T21:05:43.527Z,2.30
2018-03-26T21:08:17.215Z,2.20
2018-03-26T21:10:50.925Z,2.20
2018-03-26T21:13:26.598Z,2.20
2018-03-26T21:16:01.515Z,2.10
2018-03-26T21:18:35.788Z,2.00
2018-03-26T21:21:10.161Z,2.00
2018-03-26T21:23:44.647Z,2.10
2018-03-26T21:26:18.502Z,2.10
2018-03-26T21:28:52.248Z,2.10
2018-03-26T21:31:27.391Z,2.00
2018-03-26T21:34:01.285Z,2.00
2018-03-26T21:36:35.712Z,2.00
2018-03-26T21:39:09.761Z,2.00
2018-03-26T21:41:43.367Z,1.90
2018-03-26T21:44:17.133Z,1.90
2018-03-26T21:46:50.848Z,1.80
2018-03-26T21:49:24.582Z,1.70
2018-03-26T21:51:58.406Z,1.60
2018-03-26T21:54:33.640Z,1.60
2018-03-26T21:57:07.268Z,1.50
2018-03-26T21:59:42.259Z,1.30
2018-03-26T22:02:16.784Z,1.30
2018-03-26T22:04:50.364Z,1.40
2018-03-26T22:07:25.198Z,1.40
2018-03-26T22:09:58.783Z,1.30
2018-03-26T22:12:32.598Z,1.40
2018-03-26T22:15:06.457Z,1.40
2018-03-26T22:17:42.434Z,1.40
2018-03-26T22:20:15.962Z,1.50
2018-03-26T22:22:50.385Z,1.50
2018-03-26T22:25:24.227Z,1.40
2018-03-26T22:27:59.432Z,1.40
2018-03-26T22:30:33.918Z,1.40
2018-03-26T22:33:07.803Z,1.30
2018-03-26T22:35:41.477Z,1.30
2018-03-26T22:38:15.319Z,1.30
2018-03-26T22:40:49.074Z,1.30
2018-03-26T22:43:24.367Z,1.30
2018-03-26T22:45:58.035Z,1.30
2018-03-26T22:48:31.646Z,1.30
2018-03-26T22:51:05.848Z,1.30
2018-03-26T22:53:40.609Z,1.30
2018-03-26T22:56:15.100Z,1.30
2018-03-26T22:58:48.856Z,1.30
2018-03-26T23:01:23.429Z,1.30
2018-03-26T23:03:57.081Z,1.30
2018-03-26T23:06:31.961Z,1.30
2018-03-26T23:09:06.050Z,1.30
2018-03-26T23:11:40.753Z,1.30
2018-03-26T23:14:15.064Z,1.30
2018-03-26T23:16:50.852Z,1.40
2018-03-26T23:19:24.610Z,1.30
2018-03-26T23:21:58.249Z,1.30
2018-03-26T23:24:32.064Z,1.30
2018-03-26T23:27:06.300Z,1.20
2018-03-26T23:29:41.443Z,1.20
2018-03-26T23:32:15.968Z,1.20
2018-03-26T23:34:49.878Z,1.10
2018-03-26T23:37:25.364Z,1.10
2018-03-26T23:39:59.089Z,1.10
2018-03-26T23:42:33.630Z,1.10
2018-03-26T23:45:07.423Z,1.00
2018-03-26T23:47:42.695Z,0.90
2018-03-26T23:50:17.218Z,0.90
2018-03-26T23:52:51.338Z,0.80
2018-03-26T23:55:25.349Z,0.70
2018-03-26T23:57:59.683Z,0.70
